sensor_id;sensor_type;location;lat;lon;timestamp;pressure;altitude;pressure_sealevel;temperature;humidity
77005;BME280;67261;53.132;18.006;2023-08-31T00:01:35;100193.77;;;15.48;81.88
77005;BME280;67261;53.132;18.006;2023-08-31T00:04:02;100194.00;;;15.46;81.85
77005;BME280;67261;53.132;18.006;2023-08-31T00:06:30;100189.98;;;15.43;81.77
77005;BME280;67261;53.132;18.006;2023-08-31T00:08:57;100189.95;;;15.41;81.83
77005;BME280;67261;53.132;18.006;2023-08-31T00:11:24;100191.00;;;15.38;81.86
77005;BME280;67261;53.132;18.006;2023-08-31T00:13:52;100191.16;;;15.37;81.97
77005;BME280;67261;53.132;18.006;2023-08-31T00:16:24;100194.62;;;15.36;81.84
77005;BME280;67261;53.132;18.006;2023-08-31T00:18:53;100192.71;;;15.36;81.84
77005;BME280;67261;53.132;18.006;2023-08-31T00:21:21;100195.34;;;15.35;81.94
77005;BME280;67261;53.132;18.006;2023-08-31T00:23:48;100197.94;;;15.35;82.02
77005;BME280;67261;53.132;18.006;2023-08-31T00:26:15;100202.92;;;15.36;82.08
77005;BME280;67261;53.132;18.006;2023-08-31T00:28:43;100204.90;;;15.37;82.16
77005;BME280;67261;53.132;18.006;2023-08-31T00:31:10;100205.42;;;15.35;82.20
77005;BME280;67261;53.132;18.006;2023-08-31T00:33:39;100209.48;;;15.34;82.14
77005;BME280;67261;53.132;18.006;2023-08-31T00:36:06;100209.84;;;15.33;82.28
77005;BME280;67261;53.132;18.006;2023-08-31T00:38:34;100214.50;;;15.33;82.28
77005;BME280;67261;53.132;18.006;2023-08-31T00:41:03;100212.82;;;15.32;82.35
77005;BME280;67261;53.132;18.006;2023-08-31T00:43:31;100216.35;;;15.32;82.41
77005;BME280;67261;53.132;18.006;2023-08-31T00:45:58;100215.78;;;15.33;82.60
77005;BME280;67261;53.132;18.006;2023-08-31T00:48:25;100216.17;;;15.34;82.46
77005;BME280;67261;53.132;18.006;2023-08-31T00:50:53;100213.14;;;15.34;82.53
77005;BME280;67261;53.132;18.006;2023-08-31T00:53:21;100212.29;;;15.35;82.42
77005;BME280;67261;53.132;18.006;2023-08-31T00:55:48;100209.54;;;15.35;82.44
77005;BME280;67261;53.132;18.006;2023-08-31T00:58:16;100213.61;;;15.36;82.50
77005;BME280;67261;53.132;18.006;2023-08-31T01:03:35;100213.69;;;15.35;82.44
77005;BME280;67261;53.132;18.006;2023-08-31T01:06:15;100210.18;;;15.34;82.60
77005;BME280;67261;53.132;18.006;2023-08-31T01:09:27;100206.15;;;15.33;82.50
77005;BME280;67261;53.132;18.006;2023-08-31T01:12:12;100199.84;;;15.30;82.57
77005;BME280;67261;53.132;18.006;2023-08-31T01:14:45;100199.79;;;15.29;82.58
77005;BME280;67261;53.132;18.006;2023-08-31T01:17:15;100193.80;;;15.27;82.42
77005;BME280;67261;53.132;18.006;2023-08-31T01:19:48;100195.20;;;15.26;82.54
77005;BME280;67261;53.132;18.006;2023-08-31T01:22:31;100196.64;;;15.26;82.50
77005;BME280;67261;53.132;18.006;2023-08-31T01:25:00;100197.42;;;15.25;82.56
77005;BME280;67261;53.132;18.006;2023-08-31T01:27:31;100198.13;;;15.24;82.50
77005;BME280;67261;53.132;18.006;2023-08-31T01:29:58;100201.52;;;15.22;82.49
77005;BME280;67261;53.132;18.006;2023-08-31T01:32:26;100202.55;;;15.21;82.42
77005;BME280;67261;53.132;18.006;2023-08-31T01:34:53;100199.70;;;15.20;82.37
77005;BME280;67261;53.132;18.006;2023-08-31T01:37:42;100201.66;;;15.18;82.40
77005;BME280;67261;53.132;18.006;2023-08-31T01:40:18;100195.87;;;15.18;82.39
77005;BME280;67261;53.132;18.006;2023-08-31T01:42:47;100192.19;;;15.16;82.42
77005;BME280;67261;53.132;18.006;2023-08-31T01:45:18;100195.34;;;15.15;82.37
77005;BME280;67261;53.132;18.006;2023-08-31T01:47:47;100196.90;;;15.14;82.28
77005;BME280;67261;53.132;18.006;2023-08-31T01:50:14;100195.14;;;15.13;82.45
77005;BME280;67261;53.132;18.006;2023-08-31T01:52:41;100193.71;;;15.11;82.62
77005;BME280;67261;53.132;18.006;2023-08-31T01:55:08;100189.52;;;15.09;82.55
77005;BME280;67261;53.132;18.006;2023-08-31T01:57:35;100185.31;;;15.09;82.56
77005;BME280;67261;53.132;18.006;2023-08-31T02:00:13;100185.27;;;15.09;82.53
77005;BME280;67261;53.132;18.006;2023-08-31T02:02:44;100182.22;;;15.08;82.52
77005;BME280;67261;53.132;18.006;2023-08-31T02:05:11;100182.04;;;15.05;82.53
77005;BME280;67261;53.132;18.006;2023-08-31T02:07:38;100183.70;;;15.03;82.50
77005;BME280;67261;53.132;18.006;2023-08-31T02:10:07;100188.14;;;15.02;82.48
77005;BME280;67261;53.132;18.006;2023-08-31T02:12:35;100188.09;;;15.00;82.45
77005;BME280;67261;53.132;18.006;2023-08-31T02:15:05;100192.63;;;14.98;82.58
77005;BME280;67261;53.132;18.006;2023-08-31T02:17:34;100197.84;;;14.95;82.53
77005;BME280;67261;53.132;18.006;2023-08-31T02:20:03;100196.02;;;14.92;82.61
77005;BME280;67261;53.132;18.006;2023-08-31T02:22:33;100199.86;;;14.91;82.60
77005;BME280;67261;53.132;18.006;2023-08-31T02:25:01;100194.27;;;14.89;82.81
77005;BME280;67261;53.132;18.006;2023-08-31T02:27:31;100196.55;;;14.88;82.81
77005;BME280;67261;53.132;18.006;2023-08-31T02:29:58;100195.92;;;14.86;82.90
77005;BME280;67261;53.132;18.006;2023-08-31T02:32:25;100194.40;;;14.85;82.85
77005;BME280;67261;53.132;18.006;2023-08-31T02:34:52;100199.17;;;14.86;82.84
77005;BME280;67261;53.132;18.006;2023-08-31T02:37:19;100199.24;;;14.85;82.93
77005;BME280;67261;53.132;18.006;2023-08-31T02:39:46;100200.52;;;14.85;82.82
77005;BME280;67261;53.132;18.006;2023-08-31T02:42:16;100199.55;;;14.83;82.73
77005;BME280;67261;53.132;18.006;2023-08-31T02:44:46;100199.75;;;14.81;82.81
77005;BME280;67261;53.132;18.006;2023-08-31T02:47:13;100199.73;;;14.78;82.90
77005;BME280;67261;53.132;18.006;2023-08-31T02:49:40;100195.15;;;14.76;82.93
77005;BME280;67261;53.132;18.006;2023-08-31T02:52:08;100192.93;;;14.77;82.80
77005;BME280;67261;53.132;18.006;2023-08-31T02:54:35;100195.10;;;14.77;82.91
77005;BME280;67261;53.132;18.006;2023-08-31T02:57:02;100203.70;;;14.76;82.80
77005;BME280;67261;53.132;18.006;2023-08-31T02:59:29;100206.40;;;14.76;82.79
77005;BME280;67261;53.132;18.006;2023-08-31T03:01:56;100209.45;;;14.76;82.75
77005;BME280;67261;53.132;18.006;2023-08-31T03:04:24;100209.98;;;14.76;82.90
77005;BME280;67261;53.132;18.006;2023-08-31T03:06:51;100215.04;;;14.75;82.93
77005;BME280;67261;53.132;18.006;2023-08-31T03:09:18;100205.70;;;14.75;82.89
77005;BME280;67261;53.132;18.006;2023-08-31T03:11:46;100206.42;;;14.72;82.84
77005;BME280;67261;53.132;18.006;2023-08-31T03:14:13;100203.09;;;14.73;82.83
77005;BME280;67261;53.132;18.006;2023-08-31T03:16:41;100202.46;;;14.72;82.81
77005;BME280;67261;53.132;18.006;2023-08-31T03:19:08;100209.10;;;14.73;82.72
77005;BME280;67261;53.132;18.006;2023-08-31T03:21:35;100208.63;;;14.74;82.90
77005;BME280;67261;53.132;18.006;2023-08-31T03:24:02;100213.70;;;14.73;82.92
77005;BME280;67261;53.132;18.006;2023-08-31T03:26:29;100213.82;;;14.72;82.88
77005;BME280;67261;53.132;18.006;2023-08-31T03:28:57;100219.56;;;14.72;82.89
77005;BME280;67261;53.132;18.006;2023-08-31T03:31:24;100219.36;;;14.72;82.92
77005;BME280;67261;53.132;18.006;2023-08-31T03:33:53;100218.78;;;14.72;82.83
77005;BME280;67261;53.132;18.006;2023-08-31T03:36:22;100221.66;;;14.72;82.96
77005;BME280;67261;53.132;18.006;2023-08-31T03:38:49;100223.88;;;14.72;83.06
77005;BME280;67261;53.132;18.006;2023-08-31T03:41:16;100225.16;;;14.73;82.86
77005;BME280;67261;53.132;18.006;2023-08-31T03:43:43;100223.01;;;14.72;83.11
77005;BME280;67261;53.132;18.006;2023-08-31T03:46:10;100224.80;;;14.73;82.99
77005;BME280;67261;53.132;18.006;2023-08-31T03:48:37;100224.77;;;14.72;83.15
77005;BME280;67261;53.132;18.006;2023-08-31T03:51:04;100221.30;;;14.72;83.03
77005;BME280;67261;53.132;18.006;2023-08-31T03:53:31;100221.50;;;14.72;83.07
77005;BME280;67261;53.132;18.006;2023-08-31T03:56:01;100221.33;;;14.72;83.02
77005;BME280;67261;53.132;18.006;2023-08-31T03:58:31;100224.46;;;14.73;83.10
77005;BME280;67261;53.132;18.006;2023-08-31T04:00:58;100224.56;;;14.73;83.08
77005;BME280;67261;53.132;18.006;2023-08-31T04:03:26;100228.59;;;14.75;82.95
77005;BME280;67261;53.132;18.006;2023-08-31T04:05:56;100221.38;;;14.76;82.81
77005;BME280;67261;53.132;18.006;2023-08-31T04:08:23;100229.13;;;14.75;82.99
77005;BME280;67261;53.132;18.006;2023-08-31T04:10:50;100228.28;;;14.75;83.06
77005;BME280;67261;53.132;18.006;2023-08-31T04:13:17;100228.48;;;14.76;82.91
77005;BME280;67261;53.132;18.006;2023-08-31T04:15:44;100221.45;;;14.76;82.89
77005;BME280;67261;53.132;18.006;2023-08-31T04:18:12;100221.20;;;14.76;82.79
77005;BME280;67261;53.132;18.006;2023-08-31T04:20:48;100221.59;;;14.77;82.87
77005;BME280;67261;53.132;18.006;2023-08-31T04:25:45;100206.80;;;14.80;82.98
77005;BME280;67261;53.132;18.006;2023-08-31T04:28:12;100209.83;;;14.82;82.98
77005;BME280;67261;53.132;18.006;2023-08-31T04:30:40;100215.81;;;14.85;82.97
77005;BME280;67261;53.132;18.006;2023-08-31T04:33:08;100219.82;;;14.90;83.01
77005;BME280;67261;53.132;18.006;2023-08-31T04:35:35;100223.20;;;14.96;82.87
77005;BME280;67261;53.132;18.006;2023-08-31T04:38:02;100223.20;;;15.05;82.85
77005;BME280;67261;53.132;18.006;2023-08-31T04:40:29;100225.89;;;15.40;82.26
77005;BME280;67261;53.132;18.006;2023-08-31T04:42:56;100223.30;;;15.58;81.89
77005;BME280;67261;53.132;18.006;2023-08-31T04:45:24;100222.11;;;15.58;81.80
77005;BME280;67261;53.132;18.006;2023-08-31T04:47:56;100221.89;;;15.57;81.79
77005;BME280;67261;53.132;18.006;2023-08-31T04:50:23;100220.30;;;15.57;81.77
77005;BME280;67261;53.132;18.006;2023-08-31T04:52:50;100220.31;;;15.59;81.57
77005;BME280;67261;53.132;18.006;2023-08-31T04:55:21;100219.32;;;15.77;81.22
77005;BME280;67261;53.132;18.006;2023-08-31T04:57:48;100225.45;;;15.73;81.06
77005;BME280;67261;53.132;18.006;2023-08-31T05:00:15;100233.28;;;15.69;81.18
77005;BME280;67261;53.132;18.006;2023-08-31T05:02:42;100236.55;;;15.65;81.03
77005;BME280;67261;53.132;18.006;2023-08-31T05:05:10;100237.20;;;15.64;81.15
77005;BME280;67261;53.132;18.006;2023-08-31T05:07:37;100235.81;;;15.63;81.16
77005;BME280;67261;53.132;18.006;2023-08-31T05:10:05;100241.39;;;15.67;81.08
77005;BME280;67261;53.132;18.006;2023-08-31T05:12:33;100242.31;;;15.71;81.23
77005;BME280;67261;53.132;18.006;2023-08-31T05:15:00;100241.80;;;15.78;81.12
77005;BME280;67261;53.132;18.006;2023-08-31T05:17:26;100246.85;;;15.84;81.02
77005;BME280;67261;53.132;18.006;2023-08-31T05:19:53;100246.96;;;15.90;80.91
77005;BME280;67261;53.132;18.006;2023-08-31T05:22:20;100245.13;;;15.95;80.78
77005;BME280;67261;53.132;18.006;2023-08-31T05:24:48;100245.50;;;15.98;80.64
77005;BME280;67261;53.132;18.006;2023-08-31T05:27:15;100238.73;;;16.01;80.70
77005;BME280;67261;53.132;18.006;2023-08-31T05:29:42;100236.05;;;16.04;80.67
77005;BME280;67261;53.132;18.006;2023-08-31T05:32:09;100231.95;;;16.06;80.50
77005;BME280;67261;53.132;18.006;2023-08-31T05:34:39;100231.14;;;16.11;80.36
77005;BME280;67261;53.132;18.006;2023-08-31T05:37:06;100231.98;;;16.15;80.30
77005;BME280;67261;53.132;18.006;2023-08-31T05:39:34;100233.61;;;16.22;80.21
77005;BME280;67261;53.132;18.006;2023-08-31T05:42:01;100237.41;;;16.29;79.87
77005;BME280;67261;53.132;18.006;2023-08-31T05:44:29;100242.44;;;16.31;79.60
77005;BME280;67261;53.132;18.006;2023-08-31T05:46:56;100241.89;;;16.27;79.65
77005;BME280;67261;53.132;18.006;2023-08-31T05:49:24;100241.90;;;16.31;79.75
77005;BME280;67261;53.132;18.006;2023-08-31T05:51:51;100245.05;;;16.38;79.65
77005;BME280;67261;53.132;18.006;2023-08-31T05:54:18;100248.05;;;16.48;79.45
77005;BME280;67261;53.132;18.006;2023-08-31T05:56:49;100248.78;;;16.58;79.50
77005;BME280;67261;53.132;18.006;2023-08-31T05:59:16;100252.02;;;16.70;79.25
77005;BME280;67261;53.132;18.006;2023-08-31T06:01:43;100253.88;;;16.83;79.12
77005;BME280;67261;53.132;18.006;2023-08-31T06:04:11;100254.71;;;16.95;79.06
77005;BME280;67261;53.132;18.006;2023-08-31T06:06:39;100258.66;;;17.09;78.91
77005;BME280;67261;53.132;18.006;2023-08-31T06:09:09;100256.64;;;17.25;78.75
77005;BME280;67261;53.132;18.006;2023-08-31T06:11:39;100253.81;;;17.37;78.32
77005;BME280;67261;53.132;18.006;2023-08-31T06:14:10;100251.27;;;17.42;78.18
77005;BME280;67261;53.132;18.006;2023-08-31T06:16:37;100254.12;;;17.48;78.24
77005;BME280;67261;53.132;18.006;2023-08-31T06:19:11;100255.92;;;17.52;77.97
77005;BME280;67261;53.132;18.006;2023-08-31T06:22:02;100251.19;;;17.56;77.72
77005;BME280;67261;53.132;18.006;2023-08-31T06:24:34;100254.46;;;18.04;76.82
77005;BME280;67261;53.132;18.006;2023-08-31T06:27:03;100251.64;;;20.14;72.91
77005;BME280;67261;53.132;18.006;2023-08-31T06:29:31;100251.20;;;21.41;71.04
77005;BME280;67261;53.132;18.006;2023-08-31T06:32:08;100255.35;;;22.50;69.11
77005;BME280;67261;53.132;18.006;2023-08-31T06:34:45;100250.63;;;23.66;66.58
77005;BME280;67261;53.132;18.006;2023-08-31T06:37:13;100250.95;;;24.53;65.13
77005;BME280;67261;53.132;18.006;2023-08-31T06:39:42;100244.23;;;25.32;63.70
77005;BME280;67261;53.132;18.006;2023-08-31T06:42:40;100240.31;;;25.68;62.84
77005;BME280;67261;53.132;18.006;2023-08-31T06:45:24;100239.34;;;25.77;62.27
77005;BME280;67261;53.132;18.006;2023-08-31T06:48:43;100244.88;;;25.51;62.10
77005;BME280;67261;53.132;18.006;2023-08-31T06:51:33;100247.64;;;26.65;59.23
77005;BME280;67261;53.132;18.006;2023-08-31T06:54:15;100245.95;;;27.48;57.77
77005;BME280;67261;53.132;18.006;2023-08-31T06:56:55;100238.77;;;28.26;55.81
77005;BME280;67261;53.132;18.006;2023-08-31T06:59:43;100240.96;;;29.24;54.32
77005;BME280;67261;53.132;18.006;2023-08-31T07:02:11;100243.10;;;29.50;53.28
77005;BME280;67261;53.132;18.006;2023-08-31T07:04:42;100244.11;;;29.82;52.34
77005;BME280;67261;53.132;18.006;2023-08-31T07:07:12;100242.83;;;30.42;50.98
77005;BME280;67261;53.132;18.006;2023-08-31T07:09:42;100246.70;;;30.83;49.94
77005;BME280;67261;53.132;18.006;2023-08-31T07:12:10;100250.33;;;31.19;49.17
77005;BME280;67261;53.132;18.006;2023-08-31T07:14:38;100250.39;;;31.58;47.61
77005;BME280;67261;53.132;18.006;2023-08-31T07:17:05;100247.87;;;31.72;46.58
77005;BME280;67261;53.132;18.006;2023-08-31T07:19:36;100248.36;;;31.85;46.02
77005;BME280;67261;53.132;18.006;2023-08-31T07:22:07;100246.47;;;31.97;45.17
77005;BME280;67261;53.132;18.006;2023-08-31T07:24:52;100245.73;;;31.98;44.74
77005;BME280;67261;53.132;18.006;2023-08-31T07:27:22;100239.92;;;32.14;43.64
77005;BME280;67261;53.132;18.006;2023-08-31T07:29:49;100235.23;;;32.18;43.20
77005;BME280;67261;53.132;18.006;2023-08-31T07:32:16;100232.08;;;32.38;42.72
77005;BME280;67261;53.132;18.006;2023-08-31T07:34:43;100237.85;;;32.45;41.59
77005;BME280;67261;53.132;18.006;2023-08-31T07:37:11;100240.46;;;32.34;41.18
77005;BME280;67261;53.132;18.006;2023-08-31T07:39:39;100245.02;;;32.41;41.15
77005;BME280;67261;53.132;18.006;2023-08-31T07:42:09;100242.44;;;32.44;40.08
77005;BME280;67261;53.132;18.006;2023-08-31T07:44:36;100247.08;;;32.22;40.25
77005;BME280;67261;53.132;18.006;2023-08-31T07:47:04;100251.82;;;32.38;39.64
77005;BME280;67261;53.132;18.006;2023-08-31T07:49:38;100252.98;;;32.22;38.98
77005;BME280;67261;53.132;18.006;2023-08-31T07:52:05;100247.54;;;32.04;38.65
77005;BME280;67261;53.132;18.006;2023-08-31T07:54:32;100246.98;;;32.16;38.39
77005;BME280;67261;53.132;18.006;2023-08-31T07:57:02;100243.89;;;32.31;38.30
77005;BME280;67261;53.132;18.006;2023-08-31T07:59:29;100248.67;;;32.62;37.88
77005;BME280;67261;53.132;18.006;2023-08-31T08:01:58;100251.71;;;32.78;37.41
77005;BME280;67261;53.132;18.006;2023-08-31T08:04:25;100252.70;;;32.68;37.95
77005;BME280;67261;53.132;18.006;2023-08-31T08:06:59;100264.05;;;32.31;37.72
77005;BME280;67261;53.132;18.006;2023-08-31T08:09:26;100264.23;;;31.99;37.92
77005;BME280;67261;53.132;18.006;2023-08-31T08:11:55;100263.95;;;31.78;37.99
77005;BME280;67261;53.132;18.006;2023-08-31T08:14:22;100268.13;;;31.48;37.79
77005;BME280;67261;53.132;18.006;2023-08-31T08:16:49;100262.46;;;30.86;38.37
77005;BME280;67261;53.132;18.006;2023-08-31T08:19:24;100261.47;;;30.42;38.54
77005;BME280;67261;53.132;18.006;2023-08-31T08:21:52;100261.27;;;30.27;38.49
77005;BME280;67261;53.132;18.006;2023-08-31T08:24:28;100255.59;;;30.15;38.53
77005;BME280;67261;53.132;18.006;2023-08-31T08:26:55;100259.88;;;30.09;38.92
77005;BME280;67261;53.132;18.006;2023-08-31T08:29:22;100264.05;;;29.90;39.04
77005;BME280;67261;53.132;18.006;2023-08-31T08:31:52;100267.99;;;29.75;39.06
77005;BME280;67261;53.132;18.006;2023-08-31T08:34:22;100263.61;;;29.65;38.98
77005;BME280;67261;53.132;18.006;2023-08-31T08:36:54;100269.63;;;29.28;39.93
77005;BME280;67261;53.132;18.006;2023-08-31T08:39:21;100272.48;;;28.70;40.99
77005;BME280;67261;53.132;18.006;2023-08-31T08:41:51;100272.77;;;28.07;41.67
77005;BME280;67261;53.132;18.006;2023-08-31T08:44:24;100280.02;;;27.49;41.89
77005;BME280;67261;53.132;18.006;2023-08-31T08:46:52;100279.05;;;26.88;42.39
77005;BME280;67261;53.132;18.006;2023-08-31T08:49:21;100276.64;;;26.48;43.01
77005;BME280;67261;53.132;18.006;2023-08-31T08:51:49;100278.05;;;26.16;43.72
77005;BME280;67261;53.132;18.006;2023-08-31T08:54:21;100279.07;;;25.98;44.04
77005;BME280;67261;53.132;18.006;2023-08-31T08:56:58;100279.68;;;25.87;44.65
77005;BME280;67261;53.132;18.006;2023-08-31T08:59:27;100278.86;;;25.89;44.97
77005;BME280;67261;53.132;18.006;2023-08-31T09:01:54;100279.09;;;25.91;45.22
77005;BME280;67261;53.132;18.006;2023-08-31T09:04:24;100281.08;;;25.94;45.46
77005;BME280;67261;53.132;18.006;2023-08-31T09:06:51;100281.17;;;25.93;45.55
77005;BME280;67261;53.132;18.006;2023-08-31T09:09:18;100281.74;;;25.88;45.65
77005;BME280;67261;53.132;18.006;2023-08-31T09:11:46;100284.98;;;25.83;46.00
77005;BME280;67261;53.132;18.006;2023-08-31T09:14:15;100281.20;;;25.86;46.21
77005;BME280;67261;53.132;18.006;2023-08-31T09:16:48;100280.41;;;25.72;46.65
77005;BME280;67261;53.132;18.006;2023-08-31T09:19:28;100282.74;;;25.39;47.09
77005;BME280;67261;53.132;18.006;2023-08-31T09:21:57;100288.28;;;24.97;47.94
77005;BME280;67261;53.132;18.006;2023-08-31T09:24:27;100294.10;;;24.55;48.49
77005;BME280;67261;53.132;18.006;2023-08-31T09:26:58;100294.98;;;24.14;49.21
77005;BME280;67261;53.132;18.006;2023-08-31T09:29:27;100296.67;;;23.88;49.87
77005;BME280;67261;53.132;18.006;2023-08-31T09:31:56;100299.65;;;23.80;50.34
77005;BME280;67261;53.132;18.006;2023-08-31T09:34:32;100295.83;;;23.80;50.12
77005;BME280;67261;53.132;18.006;2023-08-31T09:37:08;100300.86;;;23.97;50.21
77005;BME280;67261;53.132;18.006;2023-08-31T09:39:38;100300.64;;;24.28;50.12
77005;BME280;67261;53.132;18.006;2023-08-31T09:42:06;100300.59;;;24.48;50.41
77005;BME280;67261;53.132;18.006;2023-08-31T09:44:32;100306.96;;;24.66;50.20
77005;BME280;67261;53.132;18.006;2023-08-31T09:47:00;100310.33;;;24.76;50.20
77005;BME280;67261;53.132;18.006;2023-08-31T09:49:27;100310.64;;;24.74;49.68
77005;BME280;67261;53.132;18.006;2023-08-31T09:51:55;100319.17;;;24.72;49.83
77005;BME280;67261;53.132;18.006;2023-08-31T09:54:25;100316.94;;;24.71;49.77
77005;BME280;67261;53.132;18.006;2023-08-31T09:56:55;100321.60;;;24.80;49.70
77005;BME280;67261;53.132;18.006;2023-08-31T09:59:23;100320.90;;;24.90;49.56
77005;BME280;67261;53.132;18.006;2023-08-31T10:01:51;100319.03;;;24.96;49.35
77005;BME280;67261;53.132;18.006;2023-08-31T10:04:18;100322.66;;;24.97;49.43
77005;BME280;67261;53.132;18.006;2023-08-31T10:06:45;100322.98;;;25.07;49.58
77005;BME280;67261;53.132;18.006;2023-08-31T10:09:13;100321.97;;;25.19;49.22
77005;BME280;67261;53.132;18.006;2023-08-31T10:11:41;100319.81;;;25.33;49.10
77005;BME280;67261;53.132;18.006;2023-08-31T10:14:13;100319.98;;;25.43;49.05
77005;BME280;67261;53.132;18.006;2023-08-31T10:16:43;100314.92;;;25.40;48.68
77005;BME280;67261;53.132;18.006;2023-08-31T10:19:11;100315.66;;;25.38;48.17
77005;BME280;67261;53.132;18.006;2023-08-31T10:21:40;100311.32;;;25.38;48.43
77005;BME280;67261;53.132;18.006;2023-08-31T10:24:07;100317.30;;;25.32;48.37
77005;BME280;67261;53.132;18.006;2023-08-31T10:26:35;100318.78;;;25.07;48.69
77005;BME280;67261;53.132;18.006;2023-08-31T10:29:02;100317.04;;;24.74;48.86
77005;BME280;67261;53.132;18.006;2023-08-31T10:31:32;100318.16;;;24.33;49.13
77005;BME280;67261;53.132;18.006;2023-08-31T10:34:06;100325.48;;;23.89;49.67
77005;BME280;67261;53.132;18.006;2023-08-31T10:36:46;100332.28;;;23.39;50.28
77005;BME280;67261;53.132;18.006;2023-08-31T10:39:18;100336.58;;;22.90;51.19
77005;BME280;67261;53.132;18.006;2023-08-31T10:41:55;100335.20;;;22.50;52.48
77005;BME280;67261;53.132;18.006;2023-08-31T10:44:23;100338.73;;;22.16;53.80
77005;BME280;67261;53.132;18.006;2023-08-31T10:46:51;100349.92;;;21.83;54.76
77005;BME280;67261;53.132;18.006;2023-08-31T10:49:20;100352.00;;;21.46;55.52
77005;BME280;67261;53.132;18.006;2023-08-31T10:52:17;100357.87;;;21.24;56.04
77005;BME280;67261;53.132;18.006;2023-08-31T10:54:47;100362.79;;;21.13;56.33
77005;BME280;67261;53.132;18.006;2023-08-31T10:57:31;100371.44;;;21.07;56.35
77005;BME280;67261;53.132;18.006;2023-08-31T10:59:58;100375.06;;;21.01;56.60
77005;BME280;67261;53.132;18.006;2023-08-31T11:02:58;100379.27;;;20.91;56.66
77005;BME280;67261;53.132;18.006;2023-08-31T11:05:25;100382.38;;;20.70;57.31
77005;BME280;67261;53.132;18.006;2023-08-31T11:07:52;100385.06;;;20.50;57.75
77005;BME280;67261;53.132;18.006;2023-08-31T11:10:22;100391.24;;;20.36;58.30
77005;BME280;67261;53.132;18.006;2023-08-31T11:12:54;100383.96;;;20.21;59.03
77005;BME280;67261;53.132;18.006;2023-08-31T11:15:25;100382.30;;;20.02;59.95
77005;BME280;67261;53.132;18.006;2023-08-31T11:17:59;100392.05;;;19.89;60.69
77005;BME280;67261;53.132;18.006;2023-08-31T11:20:26;100388.37;;;19.76;61.61
77005;BME280;67261;53.132;18.006;2023-08-31T11:22:57;100390.05;;;19.65;61.91
77005;BME280;67261;53.132;18.006;2023-08-31T11:25:24;100385.50;;;19.59;62.39
77005;BME280;67261;53.132;18.006;2023-08-31T11:27:59;100382.73;;;19.58;62.95
77005;BME280;67261;53.132;18.006;2023-08-31T11:30:28;100383.83;;;19.64;63.12
77005;BME280;67261;53.132;18.006;2023-08-31T11:33:08;100385.81;;;19.74;63.13
77005;BME280;67261;53.132;18.006;2023-08-31T11:35:37;100387.80;;;19.84;63.08
77005;BME280;67261;53.132;18.006;2023-08-31T11:38:05;100388.10;;;19.90;63.22
77005;BME280;67261;53.132;18.006;2023-08-31T11:40:33;100390.60;;;19.94;63.43
77005;BME280;67261;53.132;18.006;2023-08-31T11:43:00;100393.98;;;20.00;63.38
77005;BME280;67261;53.132;18.006;2023-08-31T11:45:27;100393.77;;;20.05;63.11
77005;BME280;67261;53.132;18.006;2023-08-31T11:48:01;100389.22;;;20.18;63.03
77005;BME280;67261;53.132;18.006;2023-08-31T11:50:29;100386.40;;;20.35;62.95
77005;BME280;67261;53.132;18.006;2023-08-31T11:52:57;100390.13;;;20.50;63.16
77005;BME280;67261;53.132;18.006;2023-08-31T11:59:25;100385.55;;;20.75;62.64
77005;BME280;67261;53.132;18.006;2023-08-31T12:01:53;100384.88;;;21.07;62.32
77005;BME280;67261;53.132;18.006;2023-08-31T12:04:21;100379.53;;;21.33;62.16
77005;BME280;67261;53.132;18.006;2023-08-31T12:06:53;100377.05;;;21.50;61.79
77005;BME280;67261;53.132;18.006;2023-08-31T12:09:30;100376.52;;;21.57;61.59
77005;BME280;67261;53.132;18.006;2023-08-31T12:11:57;100376.77;;;21.55;61.60
77005;BME280;67261;53.132;18.006;2023-08-31T12:14:25;100382.50;;;21.46;61.36
77005;BME280;67261;53.132;18.006;2023-08-31T12:17:00;100381.73;;;21.30;60.91
77005;BME280;67261;53.132;18.006;2023-08-31T12:19:29;100379.91;;;21.13;61.05
77005;BME280;67261;53.132;18.006;2023-08-31T12:21:56;100379.32;;;20.88;61.04
77005;BME280;67261;53.132;18.006;2023-08-31T12:24:24;100373.05;;;20.69;61.25
77005;BME280;67261;53.132;18.006;2023-08-31T12:26:51;100364.80;;;20.60;61.43
77005;BME280;67261;53.132;18.006;2023-08-31T12:29:21;100361.34;;;20.62;61.52
77005;BME280;67261;53.132;18.006;2023-08-31T12:31:50;100373.45;;;20.69;61.40
77005;BME280;67261;53.132;18.006;2023-08-31T12:34:17;100382.25;;;20.75;61.10
77005;BME280;67261;53.132;18.006;2023-08-31T12:36:44;100392.27;;;20.82;60.86
77005;BME280;67261;53.132;18.006;2023-08-31T12:39:11;100400.51;;;20.86;60.87
77005;BME280;67261;53.132;18.006;2023-08-31T12:41:39;100398.38;;;20.84;60.55
77005;BME280;67261;53.132;18.006;2023-08-31T12:44:07;100394.67;;;20.87;60.53
77005;BME280;67261;53.132;18.006;2023-08-31T12:46:34;100403.07;;;20.97;60.17
77005;BME280;67261;53.132;18.006;2023-08-31T12:49:02;100395.26;;;21.03;59.73
77005;BME280;67261;53.132;18.006;2023-08-31T12:51:30;100400.14;;;21.10;59.46
77005;BME280;67261;53.132;18.006;2023-08-31T12:53:57;100395.45;;;21.18;59.19
77005;BME280;67261;53.132;18.006;2023-08-31T12:56:24;100394.73;;;21.17;58.87
77005;BME280;67261;53.132;18.006;2023-08-31T12:58:53;100399.45;;;21.14;58.76
77005;BME280;67261;53.132;18.006;2023-08-31T13:01:21;100403.40;;;21.08;58.34
77005;BME280;67261;53.132;18.006;2023-08-31T13:03:49;100405.16;;;21.04;58.38